createdAt,value
2023-05-01T00:01:34.375Z,86.66
2023-05-01T00:05:36.419Z,87.06
2023-05-01T00:09:38.440Z,88.12
2023-05-01T00:13:40.559Z,88.08
2023-05-01T00:17:42.576Z,87.77
2023-05-01T00:21:46.816Z,87.98
2023-05-01T00:25:49.462Z,87.52
2023-05-01T00:29:51.464Z,86.63
2023-05-01T00:33:53.885Z,86.92
2023-05-01T00:37:56.030Z,87.25
2023-05-01T00:41:58.178Z,88.01
2023-05-01T00:46:00.455Z,89.85
2023-05-01T00:50:03.580Z,89.86
2023-05-01T00:54:05.734Z,89.76
2023-05-01T00:58:08.765Z,90.33
2023-05-01T01:02:12.616Z,90.34
2023-05-01T01:06:33.438Z,90.52
2023-05-01T01:10:43.770Z,92.62
2023-05-01T01:14:57.483Z,93.11
2023-05-01T01:19:28.715Z,92.69
2023-05-01T01:24:03.145Z,92.28
2023-05-01T01:28:52.335Z,92.90
2023-05-01T01:33:27.588Z,92.99
2023-05-01T01:37:54.666Z,92.10
2023-05-01T01:41:58.416Z,92.61
2023-05-01T01:46:05.344Z,92.79
2023-05-01T01:50:10.063Z,93.25
2023-05-01T01:54:15.123Z,92.49
2023-05-01T01:58:21.365Z,93.02
2023-05-01T02:02:24.736Z,92.83
2023-05-01T02:06:28.847Z,93.12
2023-05-01T02:10:33.820Z,93.37
2023-05-01T02:14:37.134Z,93.80
2023-05-01T02:18:40.911Z,94.13
2023-05-01T02:22:46.216Z,94.14
2023-05-01T02:26:54.854Z,92.80
2023-05-01T02:30:57.431Z,93.91
2023-05-01T02:35:00.380Z,94.54
2023-05-01T02:39:03.511Z,93.80
2023-05-01T02:43:09.852Z,93.82
2023-05-01T02:47:17.898Z,93.92
2023-05-01T02:51:20.970Z,93.26
2023-05-01T02:55:23.388Z,92.88
2023-05-01T02:59:25.734Z,92.30
2023-05-01T03:03:27.879Z,92.08
2023-05-01T03:07:35.300Z,92.30
2023-05-01T03:11:37.455Z,93.73
2023-05-01T03:15:39.597Z,93.62
2023-05-01T03:19:42.371Z,94.12
2023-05-01T03:23:44.426Z,94.28
2023-05-01T03:27:46.533Z,94.80
2023-05-01T03:31:49.000Z,95.47
2023-05-01T03:36:00.425Z,94.72
2023-05-01T03:40:03.372Z,94.74
2023-05-01T03:44:23.203Z,94.84
2023-05-01T03:48:25.530Z,95.69
2023-05-01T03:52:27.647Z,95.18
2023-05-01T03:56:35.520Z,97.05
2023-05-01T04:00:38.205Z,97.45
2023-05-01T04:04:40.490Z,97.43
2023-05-01T04:08:43.147Z,96.64
2023-05-01T04:12:45.178Z,95.23
2023-05-01T04:16:47.735Z,94.92
2023-05-01T04:20:49.762Z,95.22
2023-05-01T04:24:52.848Z,94.91
2023-05-01T04:28:54.944Z,95.90
2023-05-01T04:33:00.044Z,96.39
2023-05-01T04:37:03.106Z,95.41
2023-05-01T04:41:06.002Z,94.66
2023-05-01T04:45:08.826Z,93.95
2023-05-01T04:49:12.096Z,92.99
2023-05-01T04:53:14.408Z,92.62
2023-05-01T04:57:17.742Z,92.08
2023-05-01T05:01:19.844Z,91.51
2023-05-01T05:05:21.938Z,90.32
2023-05-01T05:09:24.896Z,89.27
2023-05-01T05:13:28.153Z,88.20
2023-05-01T05:17:45.751Z,87.24
2023-05-01T05:21:48.315Z,87.68
2023-05-01T05:25:50.326Z,87.38
2023-05-01T05:29:52.336Z,86.96
2023-05-01T05:33:54.394Z,85.56
2023-05-01T05:37:57.348Z,83.96
2023-05-01T05:41:59.981Z,81.64
2023-05-01T05:46:03.263Z,78.04
2023-05-01T05:50:08.645Z,73.76
2023-05-01T05:54:11.193Z,69.06
2023-05-01T05:58:19.696Z,67.17
2023-05-01T06:02:23.426Z,67.26
2023-05-01T06:06:26.342Z,65.89
2023-05-01T06:10:28.363Z,65.96
2023-05-01T06:14:30.358Z,66.54
2023-05-01T06:18:32.429Z,63.48
2023-05-01T06:22:35.283Z,62.92
2023-05-01T06:26:47.816Z,60.91
2023-05-01T06:30:50.480Z,60.93
2023-05-01T06:34:54.415Z,58.98
2023-05-01T06:38:56.602Z,58.73
2023-05-01T06:42:58.795Z,56.71
2023-05-01T06:47:03.468Z,56.23
2023-05-01T06:51:05.584Z,54.33
2023-05-01T06:55:08.196Z,51.44
2023-05-01T06:59:10.501Z,48.76
2023-05-01T07:03:12.999Z,45.29
2023-05-01T07:07:15.048Z,44.48
2023-05-01T07:11:17.278Z,44.63
2023-05-01T07:15:19.388Z,43.81
2023-05-01T07:19:21.436Z,45.68
2023-05-01T07:23:25.352Z,44.89
2023-05-01T07:27:27.368Z,45.36
2023-05-01T07:31:29.410Z,45.30
2023-05-01T07:35:32.794Z,46.17
2023-05-01T07:39:34.828Z,45.46
2023-05-01T07:43:36.926Z,45.71
2023-05-01T07:47:38.948Z,45.32
2023-05-01T07:51:42.270Z,44.75
2023-05-01T07:55:44.361Z,44.84
2023-05-01T07:59:46.511Z,44.73
2023-05-01T08:03:50.843Z,44.03
2023-05-01T08:07:53.166Z,44.50
2023-05-01T08:11:55.248Z,43.75
2023-05-01T08:16:04.064Z,43.42
2023-05-01T08:20:06.742Z,43.84
2023-05-01T08:24:10.521Z,43.43
2023-05-01T08:28:14.815Z,43.41
2023-05-01T08:32:18.254Z,42.90
2023-05-01T08:36:21.306Z,43.09
2023-05-01T08:40:25.860Z,43.73
2023-05-01T08:44:28.767Z,44.26
2023-05-01T08:48:32.202Z,43.48
2023-05-01T08:52:34.475Z,43.64
2023-05-01T08:56:36.834Z,44.01
2023-05-01T09:00:40.178Z,44.04
2023-05-01T09:04:42.218Z,44.09
2023-05-01T09:08:44.298Z,42.97
2023-05-01T09:12:55.255Z,44.07
2023-05-01T09:16:57.567Z,43.82
2023-05-01T09:20:59.626Z,43.33
2023-05-01T09:25:02.193Z,43.78
2023-05-01T09:29:04.640Z,43.48
2023-05-01T09:33:13.676Z,43.29
2023-05-01T09:37:34.578Z,43.58
2023-05-01T09:41:51.352Z,43.71
2023-05-01T09:46:09.470Z,43.55
2023-05-01T09:50:29.572Z,43.24
2023-05-01T09:54:31.599Z,42.99
2023-05-01T09:58:33.695Z,43.29
2023-05-01T10:02:36.395Z,43.09
2023-05-01T10:06:39.563Z,42.86
2023-05-01T10:10:43.656Z,42.49
2023-05-01T10:14:56.487Z,42.63
2023-05-01T10:19:00.062Z,42.93
2023-05-01T10:23:05.880Z,42.00
2023-05-01T10:27:08.826Z,42.26
2023-05-01T10:31:12.665Z,42.54
2023-05-01T10:35:27.210Z,41.70
2023-05-01T10:39:38.432Z,42.62
2023-05-01T10:43:40.455Z,42.45
2023-05-01T10:47:42.974Z,41.95
2023-05-01T10:51:58.081Z,41.42
2023-05-01T10:56:00.495Z,41.62
2023-05-01T11:00:11.793Z,41.28
2023-05-01T11:04:24.562Z,42.20
2023-05-01T11:08:37.509Z,41.94
2023-05-01T11:12:48.688Z,41.53
2023-05-01T11:16:50.757Z,42.00
2023-05-01T11:20:53.079Z,41.18
2023-05-01T11:24:55.412Z,41.25
2023-05-01T11:28:59.345Z,41.21
2023-05-01T11:33:01.658Z,41.15
2023-05-01T11:37:03.698Z,40.47
2023-05-01T11:41:06.026Z,40.36
2023-05-01T11:45:11.159Z,40.30
2023-05-01T11:49:13.272Z,40.08
2023-05-01T11:53:15.814Z,40.44
2023-05-01T11:57:20.122Z,40.91
2023-05-01T12:01:22.348Z,40.13
2023-05-01T12:05:26.280Z,39.95
2023-05-01T12:09:28.859Z,40.47
2023-05-01T12:13:31.196Z,39.78
2023-05-01T12:17:33.619Z,39.95
2023-05-01T12:21:36.722Z,40.38
2023-05-01T12:25:40.725Z,40.12
2023-05-01T12:29:44.668Z,39.93
2023-05-01T12:33:55.364Z,39.94
2023-05-01T12:37:58.568Z,40.28
2023-05-01T12:42:00.681Z,40.82
2023-05-01T12:46:06.611Z,41.20
2023-05-01T12:50:09.940Z,41.82
2023-05-01T12:54:12.168Z,42.07
2023-05-01T12:58:15.306Z,42.13
2023-05-01T13:02:17.981Z,42.45
2023-05-01T13:06:20.385Z,42.86
2023-05-01T13:10:31.336Z,43.04
2023-05-01T13:14:38.571Z,42.94
2023-05-01T13:18:53.574Z,43.42
2023-05-01T13:22:55.827Z,42.80
2023-05-01T13:27:04.269Z,42.57
2023-05-01T13:31:16.100Z,42.44
2023-05-01T13:35:25.172Z,41.83
2023-05-01T13:39:27.638Z,42.23
2023-05-01T13:43:29.753Z,41.35
2023-05-01T13:47:32.355Z,41.12
2023-05-01T13:51:37.718Z,40.60
2023-05-01T13:55:41.485Z,40.59
2023-05-01T13:59:45.381Z,40.76
2023-05-01T14:03:48.444Z,41.08
2023-05-01T14:07:56.903Z,41.08
2023-05-01T14:11:59.604Z,41.48
2023-05-01T14:16:06.438Z,41.57
2023-05-01T14:20:08.850Z,41.55
2023-05-01T14:24:11.302Z,42.04
2023-05-01T14:28:14.001Z,41.84
2023-05-01T14:32:16.227Z,41.76
2023-05-01T14:36:18.450Z,41.46
2023-05-01T14:40:29.289Z,41.45
2023-05-01T14:44:31.333Z,41.06
2023-05-01T14:48:41.303Z,41.57
2023-05-01T14:52:43.358Z,41.25
2023-05-01T14:56:47.065Z,41.96
2023-05-01T15:00:49.177Z,42.00
2023-05-01T15:04:51.195Z,42.34
2023-05-01T15:08:53.182Z,42.46
2023-05-01T15:12:55.599Z,42.66
2023-05-01T15:16:57.738Z,42.94
2023-05-01T15:20:59.864Z,42.69
2023-05-01T15:25:01.956Z,42.46
2023-05-01T15:29:03.950Z,42.08
2023-05-01T15:33:06.035Z,42.11
2023-05-01T15:37:08.422Z,41.90
2023-05-01T15:41:10.481Z,41.24
2023-05-01T15:45:12.477Z,41.62
2023-05-01T15:49:15.396Z,40.87
2023-05-01T15:53:17.481Z,40.91
2023-05-01T15:57:19.617Z,40.68
2023-05-01T16:01:21.675Z,40.52
2023-05-01T16:05:24.850Z,40.51
2023-05-01T16:09:34.017Z,40.07
2023-05-01T16:13:40.205Z,39.96
2023-05-01T16:17:46.406Z,40.45
2023-05-01T16:21:48.594Z,40.14
2023-05-01T16:25:50.852Z,40.93
2023-05-01T16:29:53.210Z,41.23
2023-05-01T16:33:56.608Z,41.67
2023-05-01T16:37:59.712Z,41.58
2023-05-01T16:42:01.705Z,42.29
2023-05-01T16:46:03.905Z,43.10
2023-05-01T16:50:08.476Z,42.61
2023-05-01T16:54:10.744Z,43.24
2023-05-01T16:58:12.734Z,43.84
2023-05-01T17:02:14.852Z,43.66
2023-05-01T17:06:17.020Z,44.20
2023-05-01T17:10:19.057Z,45.38
2023-05-01T17:14:21.103Z,48.08
2023-05-01T17:18:23.117Z,48.48
2023-05-01T17:22:26.688Z,49.61
2023-05-01T17:26:29.902Z,50.31
2023-05-01T17:30:32.017Z,50.84
2023-05-01T17:34:34.032Z,51.95
2023-05-01T17:38:36.337Z,52.40
2023-05-01T17:42:38.500Z,52.58
2023-05-01T17:46:40.569Z,51.97
2023-05-01T17:50:42.617Z,51.63
2023-05-01T17:54:44.630Z,52.50
2023-05-01T17:58:47.060Z,53.07
2023-05-01T18:02:49.325Z,54.34
2023-05-01T18:06:51.480Z,54.78
2023-05-01T18:10:53.507Z,55.47
2023-05-01T18:14:55.689Z,54.95
2023-05-01T18:18:58.140Z,54.82
2023-05-01T18:23:01.001Z,55.38
2023-05-01T18:27:03.134Z,55.54
2023-05-01T18:31:05.174Z,55.51
2023-05-01T18:35:07.950Z,55.82
2023-05-01T18:39:09.931Z,56.42
2023-05-01T18:43:14.030Z,57.50
2023-05-01T18:47:16.078Z,58.78
2023-05-01T18:51:18.131Z,59.06
2023-05-01T18:55:20.212Z,59.44
2023-05-01T18:59:22.669Z,59.17
2023-05-01T19:03:24.692Z,59.48
2023-05-01T19:07:26.809Z,59.65
2023-05-01T19:11:31.637Z,59.50
2023-05-01T19:15:34.050Z,59.73
2023-05-01T19:19:36.197Z,60.28
2023-05-01T19:23:39.826Z,60.06
2023-05-01T19:27:41.908Z,60.53
2023-05-01T19:31:43.927Z,61.03
2023-05-01T19:35:46.116Z,62.06
2023-05-01T19:39:48.108Z,62.58
2023-05-01T19:43:50.126Z,63.30
2023-05-01T19:47:52.120Z,63.78
2023-05-01T19:51:54.323Z,63.98
2023-05-01T19:55:57.003Z,64.54
2023-05-01T19:59:59.354Z,65.17
2023-05-01T20:04:01.532Z,67.10
2023-05-01T20:08:04.629Z,65.55
2023-05-01T20:12:06.885Z,65.15
2023-05-01T20:16:09.892Z,65.52
2023-05-01T20:20:12.677Z,65.90
2023-05-01T20:24:14.733Z,65.98
2023-05-01T20:28:16.805Z,66.35
2023-05-01T20:32:18.824Z,67.12
2023-05-01T20:36:21.318Z,67.50
2023-05-01T20:40:23.994Z,67.92
2023-05-01T20:44:26.118Z,68.19
2023-05-01T20:48:28.137Z,68.91
2023-05-01T20:52:30.172Z,69.06
2023-05-01T20:56:32.373Z,69.27
2023-05-01T21:00:34.391Z,69.13
2023-05-01T21:04:38.013Z,69.17
2023-05-01T21:08:40.162Z,69.30
2023-05-01T21:12:42.860Z,69.26
2023-05-01T21:16:44.866Z,69.74
2023-05-01T21:20:48.570Z,69.50
2023-05-01T21:24:59.635Z,69.28
2023-05-01T21:29:02.407Z,69.27
2023-05-01T21:33:06.978Z,69.62
2023-05-01T21:37:09.204Z,69.93
2023-05-01T21:41:15.065Z,69.67
2023-05-01T21:45:19.073Z,69.82
2023-05-01T21:49:27.001Z,69.94
2023-05-01T21:53:29.903Z,70.64
2023-05-01T21:57:31.994Z,71.15
2023-05-01T22:01:34.128Z,72.21
2023-05-01T22:05:40.832Z,72.87
2023-05-01T22:09:42.850Z,73.80
2023-05-01T22:13:44.856Z,74.80
2023-05-01T22:17:46.931Z,75.27
2023-05-01T22:21:48.994Z,75.17
2023-05-01T22:25:51.375Z,75.10
2023-05-01T22:29:53.382Z,75.64
2023-05-01T22:33:55.439Z,76.13
2023-05-01T22:37:58.086Z,76.82
2023-05-01T22:42:00.434Z,76.85
2023-05-01T22:46:02.863Z,77.53
2023-05-01T22:50:05.491Z,77.89
2023-05-01T22:54:07.508Z,78.05
2023-05-01T22:58:09.545Z,78.59
2023-05-01T23:02:16.290Z,79.10
2023-05-01T23:06:19.003Z,80.94
2023-05-01T23:10:22.437Z,79.79
2023-05-01T23:14:25.870Z,80.37
2023-05-01T23:18:36.458Z,80.83
2023-05-01T23:22:40.253Z,81.86
2023-05-01T23:26:42.333Z,82.41
2023-05-01T23:30:44.645Z,82.78
2023-05-01T23:34:46.626Z,83.27
2023-05-01T23:38:48.682Z,83.86
2023-05-01T23:42:50.842Z,84.06
2023-05-01T23:46:52.960Z,84.54
2023-05-01T23:50:55.322Z,85.29
2023-05-01T23:54:57.405Z,85.88
2023-05-01T23:58:59.382Z,86.15
